createdAt,value
2023-01-30T00:01:18.378Z,10.23
2023-01-30T00:03:46.836Z,9.93
2023-01-30T00:06:15.423Z,10.40
2023-01-30T00:08:43.777Z,11.20
2023-01-30T00:11:14.506Z,9.47
2023-01-30T00:13:44.985Z,9.97
2023-01-30T00:16:13.521Z,10.93
2023-01-30T00:18:42.900Z,10.27
2023-01-30T00:21:14.422Z,10.07
2023-01-30T00:23:43.127Z,11.37
2023-01-30T00:26:12.288Z,10.53
2023-01-30T00:28:41.455Z,11.83
2023-01-30T00:31:11.304Z,10.93
2023-01-30T00:33:40.260Z,11.47
2023-01-30T00:36:10.412Z,10.63
2023-01-30T00:38:39.080Z,10.50
2023-01-30T00:41:10.670Z,10.33
2023-01-30T00:43:56.564Z,12.07
2023-01-30T00:46:48.938Z,10.23
2023-01-30T00:49:17.272Z,10.57
2023-01-30T00:51:45.706Z,10.53
2023-01-30T00:54:14.745Z,11.80
2023-01-30T00:56:43.368Z,11.20
2023-01-30T00:59:11.615Z,11.43
2023-01-30T01:01:41.460Z,10.37
2023-01-30T01:04:19.899Z,10.90
2023-01-30T01:06:48.157Z,11.30
2023-01-30T01:09:16.427Z,12.37
2023-01-30T01:11:45.007Z,11.43
2023-01-30T01:14:13.230Z,11.47
2023-01-30T01:16:44.087Z,11.77
2023-01-30T01:19:12.704Z,11.87
2023-01-30T01:21:42.110Z,10.73
2023-01-30T01:24:15.335Z,10.90
2023-01-30T01:26:44.092Z,12.73
2023-01-30T01:29:14.597Z,11.07
2023-01-30T01:31:45.228Z,12.63
2023-01-30T01:34:13.633Z,12.60
2023-01-30T01:36:54.366Z,11.23
2023-01-30T01:39:23.843Z,11.80
2023-01-30T01:41:51.313Z,11.27
2023-01-30T01:44:19.718Z,11.97
2023-01-30T01:46:53.282Z,13.60
2023-01-30T01:49:26.535Z,11.03
2023-01-30T01:52:00.495Z,11.90
2023-01-30T01:54:36.164Z,12.63
2023-01-30T01:57:11.943Z,13.13
2023-01-30T01:59:45.945Z,9.67
2023-01-30T02:02:19.720Z,11.73
2023-01-30T02:05:03.636Z,11.77
2023-01-30T02:07:38.969Z,11.40
2023-01-30T02:10:10.310Z,11.03
2023-01-30T02:12:40.379Z,11.77
2023-01-30T02:15:11.485Z,11.20
2023-01-30T02:17:42.270Z,11.63
2023-01-30T02:20:22.889Z,12.00
2023-01-30T02:23:32.838Z,11.80
2023-01-30T02:26:46.412Z,12.20
2023-01-30T02:29:43.784Z,10.07
2023-01-30T02:32:21.715Z,10.37
2023-01-30T02:35:08.839Z,12.37
2023-01-30T02:37:54.292Z,12.00
2023-01-30T02:40:37.995Z,11.30
2023-01-30T02:43:17.115Z,11.50
2023-01-30T02:45:55.549Z,12.43
2023-01-30T02:48:29.634Z,12.13
2023-01-30T02:51:03.790Z,11.57
2023-01-30T02:53:34.073Z,11.47
2023-01-30T02:56:03.165Z,12.83
2023-01-30T02:58:37.244Z,12.03
2023-01-30T03:01:25.983Z,11.47
2023-01-30T03:04:28.751Z,11.73
2023-01-30T03:07:20.088Z,11.47
2023-01-30T03:09:59.840Z,10.43
2023-01-30T03:12:50.471Z,11.23
2023-01-30T03:15:27.734Z,10.70
2023-01-30T03:17:56.511Z,10.23
2023-01-30T03:20:26.568Z,10.67
2023-01-30T03:22:55.886Z,11.37
2023-01-30T03:25:27.745Z,9.70
2023-01-30T03:27:57.741Z,11.07
2023-01-30T03:30:27.650Z,9.23
2023-01-30T03:33:04.742Z,12.13
2023-01-30T03:35:34.471Z,9.80
2023-01-30T03:38:03.693Z,11.13
2023-01-30T03:40:32.007Z,11.70
2023-01-30T03:43:00.766Z,10.63
2023-01-30T03:45:29.515Z,11.20
2023-01-30T03:47:57.768Z,11.80
2023-01-30T03:50:26.026Z,12.20
2023-01-30T03:52:55.637Z,10.23
2023-01-30T03:55:24.312Z,12.50
2023-01-30T03:57:57.078Z,11.10
2023-01-30T04:00:27.105Z,11.97
2023-01-30T04:02:57.176Z,15.20
2023-01-30T04:05:26.017Z,13.43
2023-01-30T04:08:01.013Z,12.13
2023-01-30T04:10:29.427Z,11.73
2023-01-30T04:12:57.825Z,11.80
2023-01-30T04:15:26.251Z,11.90
2023-01-30T04:18:23.240Z,11.27
2023-01-30T04:20:55.315Z,12.37
2023-01-30T04:23:32.429Z,13.30
2023-01-30T04:26:00.642Z,11.60
2023-01-30T04:28:29.111Z,11.80
2023-01-30T04:30:58.435Z,12.17
2023-01-30T04:33:55.715Z,12.23
2023-01-30T04:36:23.982Z,11.53
2023-01-30T04:38:53.875Z,11.53
2023-01-30T04:41:23.310Z,11.10
2023-01-30T04:43:53.313Z,11.70
2023-01-30T04:46:28.828Z,11.23
2023-01-30T04:48:58.016Z,10.93
2023-01-30T04:51:26.969Z,11.53
2023-01-30T04:53:56.605Z,10.23
2023-01-30T04:56:24.804Z,11.40
2023-01-30T04:58:54.311Z,10.93
2023-01-30T05:01:27.480Z,10.70
2023-01-30T05:03:58.055Z,11.03
2023-01-30T05:06:27.058Z,10.03
2023-01-30T05:08:58.131Z,10.90
2023-01-30T05:11:28.663Z,11.20
2023-01-30T05:13:57.415Z,10.27
2023-01-30T05:16:26.909Z,11.23
2023-01-30T05:18:55.099Z,10.20
2023-01-30T05:21:27.919Z,10.10
2023-01-30T05:23:58.640Z,10.70
2023-01-30T05:26:27.049Z,9.63
2023-01-30T05:28:57.755Z,10.50
2023-01-30T05:31:26.251Z,9.63
2023-01-30T05:33:54.983Z,10.27
2023-01-30T05:36:25.124Z,9.80
2023-01-30T05:38:53.405Z,11.17
2023-01-30T05:41:23.026Z,10.50
2023-01-30T05:43:52.028Z,9.27
2023-01-30T05:46:20.573Z,10.33
2023-01-30T05:48:49.045Z,10.00
2023-01-30T05:51:19.614Z,10.27
2023-01-30T05:53:48.670Z,10.20
2023-01-30T05:56:17.190Z,10.30
2023-01-30T05:58:52.173Z,11.00
2023-01-30T06:01:21.097Z,9.17
2023-01-30T06:03:49.943Z,10.47
2023-01-30T06:06:18.808Z,9.00
2023-01-30T06:08:47.235Z,8.60
2023-01-30T06:11:17.369Z,10.33
2023-01-30T06:13:47.285Z,9.13
2023-01-30T06:16:18.236Z,8.40
2023-01-30T06:18:47.977Z,10.43
2023-01-30T06:21:17.287Z,9.27
2023-01-30T06:23:46.429Z,9.63
2023-01-30T06:26:14.770Z,8.23
2023-01-30T06:28:43.153Z,9.93
2023-01-30T06:31:12.824Z,9.67
2023-01-30T06:33:41.036Z,10.93
2023-01-30T06:36:14.147Z,9.73
2023-01-30T06:38:42.408Z,9.10
2023-01-30T06:41:10.649Z,10.43
2023-01-30T06:43:38.927Z,10.50
2023-01-30T06:46:07.269Z,27.73
2023-01-30T06:48:36.855Z,8.87
2023-01-30T06:51:05.407Z,11.57
2023-01-30T06:53:33.699Z,9.10
2023-01-30T06:56:03.693Z,10.57
2023-01-30T06:58:32.311Z,10.80
2023-01-30T07:01:02.089Z,9.27
2023-01-30T07:03:30.515Z,8.13
2023-01-30T07:06:00.060Z,10.40
2023-01-30T07:08:28.516Z,8.07
2023-01-30T07:10:56.726Z,9.57
2023-01-30T07:13:24.974Z,10.43
2023-01-30T07:15:53.214Z,10.90
2023-01-30T07:18:21.407Z,10.67
2023-01-30T07:20:50.483Z,10.50
2023-01-30T07:23:20.083Z,10.80
2023-01-30T07:25:48.325Z,10.13
2023-01-30T07:28:16.548Z,10.23
2023-01-30T07:30:44.816Z,10.97
2023-01-30T07:33:13.309Z,10.60
2023-01-30T07:35:41.493Z,10.07
2023-01-30T07:38:09.676Z,10.70
2023-01-30T07:40:39.290Z,10.17
2023-01-30T07:43:11.074Z,10.13
2023-01-30T07:45:42.887Z,10.50
2023-01-30T07:48:13.768Z,9.73
2023-01-30T07:50:42.199Z,10.13
2023-01-30T07:53:12.771Z,9.10
2023-01-30T07:55:42.792Z,8.50
2023-01-30T07:58:14.864Z,9.70
2023-01-30T08:00:43.132Z,9.00
2023-01-30T08:03:14.365Z,8.27
2023-01-30T08:05:42.654Z,7.57
2023-01-30T08:08:10.858Z,9.47
2023-01-30T08:10:39.037Z,8.60
2023-01-30T08:13:08.757Z,9.77
2023-01-30T08:15:36.998Z,8.67
2023-01-30T08:18:07.245Z,9.00
2023-01-30T08:20:35.814Z,8.10
2023-01-30T08:23:04.453Z,8.73
2023-01-30T08:25:32.759Z,5.87
2023-01-30T08:28:01.266Z,6.47
2023-01-30T08:30:31.795Z,8.73
2023-01-30T08:33:00.457Z,7.83
2023-01-30T08:35:28.718Z,8.33
2023-01-30T08:37:56.944Z,8.37
2023-01-30T08:40:25.188Z,4.80
2023-01-30T08:42:53.383Z,8.50
2023-01-30T08:45:21.629Z,7.43
2023-01-30T08:47:51.180Z,7.63
2023-01-30T08:50:20.154Z,7.13
2023-01-30T08:52:48.580Z,7.93
2023-01-30T08:55:18.058Z,7.50
2023-01-30T08:57:46.691Z,7.50
2023-01-30T09:00:17.080Z,7.53
2023-01-30T09:02:47.080Z,6.90
2023-01-30T09:05:16.948Z,7.73
2023-01-30T09:07:47.221Z,7.43
2023-01-30T09:10:15.479Z,11.90
2023-01-30T09:12:44.216Z,7.70
2023-01-30T09:15:13.430Z,6.67
2023-01-30T09:17:41.700Z,4.67
2023-01-30T09:20:12.911Z,8.23
2023-01-30T09:22:42.571Z,7.00
2023-01-30T09:25:11.207Z,6.33
2023-01-30T09:27:39.570Z,7.43
2023-01-30T09:30:10.291Z,6.83
2023-01-30T09:32:38.548Z,6.90
2023-01-30T09:35:08.509Z,6.53
2023-01-30T09:37:36.769Z,8.13
2023-01-30T09:40:08.512Z,6.27
2023-01-30T09:43:07.869Z,6.57
2023-01-30T09:45:45.628Z,6.47
2023-01-30T09:48:22.411Z,7.07
2023-01-30T09:51:36.023Z,5.60
2023-01-30T09:54:22.030Z,5.73
2023-01-30T09:57:02.886Z,5.37
2023-01-30T09:59:41.560Z,5.43
2023-01-30T10:02:36.894Z,6.70
2023-01-30T10:05:06.541Z,5.93
2023-01-30T10:07:53.421Z,6.43
2023-01-30T10:10:38.991Z,6.23
2023-01-30T10:13:32.717Z,6.97
2023-01-30T10:16:10.613Z,5.87
2023-01-30T10:19:34.725Z,7.13
2023-01-30T10:22:21.068Z,6.50
2023-01-30T10:25:02.906Z,6.17
2023-01-30T10:27:33.859Z,6.00
2023-01-30T10:30:07.878Z,5.83
2023-01-30T10:32:44.162Z,6.03
2023-01-30T10:35:19.700Z,5.67
2023-01-30T10:37:57.659Z,5.93
2023-01-30T10:40:31.063Z,5.80
2023-01-30T10:43:09.709Z,5.70
2023-01-30T10:45:47.865Z,5.07
2023-01-30T10:48:46.751Z,5.03
2023-01-30T10:51:26.306Z,5.77
2023-01-30T10:54:02.315Z,5.90
2023-01-30T10:56:41.147Z,5.37
2023-01-30T10:59:24.323Z,5.87
2023-01-30T11:02:02.706Z,6.10
2023-01-30T11:05:17.743Z,5.97
2023-01-30T11:07:49.038Z,5.27
2023-01-30T11:10:19.787Z,5.80
2023-01-30T11:12:48.121Z,5.67
2023-01-30T11:15:16.860Z,6.50
2023-01-30T11:17:46.851Z,6.47
2023-01-30T11:20:19.256Z,6.97
2023-01-30T11:22:50.468Z,6.97
2023-01-30T11:25:22.058Z,6.73
2023-01-30T11:27:57.071Z,7.13
2023-01-30T11:30:30.276Z,7.10
2023-01-30T11:33:14.168Z,6.93
2023-01-30T11:35:54.703Z,6.23
2023-01-30T11:38:25.583Z,6.50
2023-01-30T11:41:18.305Z,6.97
2023-01-30T11:43:47.325Z,7.73
2023-01-30T11:46:19.539Z,7.10
2023-01-30T11:49:04.369Z,6.73
2023-01-30T11:51:48.047Z,6.53
2023-01-30T11:54:20.791Z,6.37
2023-01-30T11:56:54.043Z,11.93
2023-01-30T11:59:29.063Z,13.00
2023-01-30T12:02:06.866Z,6.20
2023-01-30T12:04:36.650Z,7.13
2023-01-30T12:07:19.016Z,6.93
2023-01-30T12:09:50.307Z,6.97
2023-01-30T12:12:34.277Z,6.87
2023-01-30T12:15:19.570Z,5.33
2023-01-30T12:17:57.309Z,5.00
2023-01-30T12:20:43.136Z,5.00
2023-01-30T12:23:18.338Z,4.30
2023-01-30T12:25:58.442Z,3.93
2023-01-30T12:28:36.353Z,3.97
2023-01-30T12:31:10.541Z,4.50
2023-01-30T12:33:38.855Z,4.00
2023-01-30T12:36:26.066Z,3.63
2023-01-30T12:39:26.222Z,4.27
2023-01-30T12:45:04.898Z,4.73
2023-01-30T12:47:55.173Z,4.80
2023-01-30T12:50:38.970Z,4.17
2023-01-30T12:53:44.383Z,4.40
2023-01-30T12:56:46.367Z,4.50
2023-01-30T12:59:23.824Z,5.03
2023-01-30T13:02:14.070Z,5.37
2023-01-30T13:05:01.633Z,5.23
2023-01-30T13:07:40.340Z,4.50
2023-01-30T13:10:21.085Z,4.63
2023-01-30T13:13:06.161Z,4.23
2023-01-30T13:15:45.965Z,4.73
2023-01-30T13:18:19.613Z,4.03
2023-01-30T13:21:02.500Z,4.63
2023-01-30T13:23:45.621Z,3.90
2023-01-30T13:26:20.171Z,4.30
2023-01-30T13:28:51.329Z,5.00
2023-01-30T13:31:22.918Z,4.00
2023-01-30T13:33:53.767Z,4.53
2023-01-30T13:36:25.597Z,4.83
2023-01-30T13:39:02.501Z,4.47
2023-01-30T13:41:40.679Z,4.83
2023-01-30T13:44:19.785Z,4.23
2023-01-30T13:46:49.451Z,4.40
2023-01-30T13:49:25.002Z,3.87
2023-01-30T13:51:59.317Z,4.27
2023-01-30T13:54:48.736Z,4.47
2023-01-30T13:57:31.936Z,4.80
2023-01-30T14:00:33.240Z,4.57
2023-01-30T14:03:31.439Z,5.43
2023-01-30T14:06:35.533Z,5.27
2023-01-30T14:09:19.243Z,4.20
2023-01-30T14:11:58.586Z,4.83
2023-01-30T14:14:36.654Z,5.53
2023-01-30T14:17:17.179Z,5.00
2023-01-30T14:19:58.298Z,5.23
2023-01-30T14:22:41.153Z,5.10
2023-01-30T14:25:47.160Z,5.23
2023-01-30T14:28:52.212Z,4.90
2023-01-30T14:31:55.224Z,5.27
2023-01-30T14:34:49.372Z,6.40
2023-01-30T14:37:46.916Z,4.90
2023-01-30T14:40:46.865Z,5.77
2023-01-30T14:43:53.236Z,5.20
2023-01-30T14:46:55.018Z,4.73
2023-01-30T14:49:32.602Z,4.37
2023-01-30T14:52:02.102Z,5.37
2023-01-30T14:54:42.285Z,5.67
2023-01-30T14:57:24.684Z,5.17
2023-01-30T15:00:18.134Z,5.40
2023-01-30T15:02:52.580Z,5.20
2023-01-30T15:05:31.857Z,5.17
2023-01-30T15:08:11.577Z,4.87
2023-01-30T15:11:13.633Z,4.83
2023-01-30T15:13:56.056Z,16.50
2023-01-30T15:17:02.076Z,5.73
2023-01-30T15:20:07.295Z,4.97
2023-01-30T15:22:50.764Z,5.73
2023-01-30T15:25:31.773Z,5.90
2023-01-30T15:28:11.905Z,4.27
2023-01-30T15:30:58.408Z,5.80
2023-01-30T15:33:31.919Z,5.63
2023-01-30T15:36:00.806Z,4.20
2023-01-30T15:38:34.298Z,5.30
2023-01-30T15:41:04.703Z,5.30
2023-01-30T15:43:59.883Z,5.70
2023-01-30T15:46:41.322Z,4.63
2023-01-30T15:49:49.533Z,5.00
2023-01-30T15:52:21.235Z,5.23
2023-01-30T15:54:52.859Z,4.60
2023-01-30T15:57:29.393Z,3.90
2023-01-30T15:59:59.106Z,5.60
2023-01-30T16:02:32.586Z,6.33
2023-01-30T16:05:19.151Z,5.13
2023-01-30T16:07:50.161Z,4.73
2023-01-30T16:10:22.748Z,5.00
2023-01-30T16:12:54.663Z,4.83
2023-01-30T16:15:29.721Z,8.30
2023-01-30T16:18:05.671Z,5.30
2023-01-30T16:20:59.200Z,4.73
2023-01-30T16:23:35.130Z,4.57
2023-01-30T16:26:06.752Z,4.80
2023-01-30T16:28:35.197Z,4.53
2023-01-30T16:31:06.876Z,5.13
2023-01-30T16:33:37.100Z,4.57
2023-01-30T16:36:07.979Z,4.93
2023-01-30T16:38:45.449Z,4.87
2023-01-30T16:41:36.163Z,5.00
2023-01-30T16:44:20.356Z,5.17
2023-01-30T16:46:53.007Z,4.70
2023-01-30T16:49:33.983Z,5.20
2023-01-30T16:52:06.063Z,6.10
2023-01-30T16:54:36.253Z,19.33
2023-01-30T16:57:06.323Z,5.83
2023-01-30T16:59:36.402Z,7.07
2023-01-30T17:02:08.599Z,5.63
2023-01-30T17:04:41.268Z,5.60
2023-01-30T17:07:34.987Z,4.87
2023-01-30T17:10:03.300Z,5.93
2023-01-30T17:12:44.504Z,4.03
2023-01-30T17:15:36.805Z,4.90
2023-01-30T17:18:07.704Z,22.43
2023-01-30T17:20:45.469Z,25.67
2023-01-30T17:23:20.065Z,7.90
2023-01-30T17:25:49.951Z,8.27
2023-01-30T17:28:24.071Z,7.23
2023-01-30T17:30:52.449Z,5.00
2023-01-30T17:33:20.838Z,6.60
2023-01-30T17:35:49.074Z,7.60
2023-01-30T17:38:17.321Z,6.63
2023-01-30T17:40:46.126Z,19.63
2023-01-30T17:43:15.772Z,6.63
2023-01-30T17:45:45.414Z,6.90
2023-01-30T17:48:14.171Z,7.13
2023-01-30T17:50:42.551Z,8.20
2023-01-30T17:53:10.916Z,7.83
2023-01-30T17:55:39.535Z,7.63
2023-01-30T17:58:07.781Z,5.97
2023-01-30T18:00:36.011Z,6.70
2023-01-30T18:03:05.649Z,5.70
2023-01-30T18:05:34.376Z,6.63
2023-01-30T18:08:02.566Z,5.93
2023-01-30T18:10:30.882Z,6.47
2023-01-30T18:12:59.125Z,6.90
2023-01-30T18:15:28.112Z,6.50
2023-01-30T18:17:56.862Z,6.27
2023-01-30T18:20:26.560Z,6.60
2023-01-30T18:22:54.779Z,6.33
2023-01-30T18:25:23.334Z,6.47
2023-01-30T18:27:51.593Z,5.93
2023-01-30T18:30:20.527Z,6.57
2023-01-30T18:32:52.984Z,6.23
2023-01-30T18:35:23.209Z,6.40
2023-01-30T18:37:53.145Z,6.93
2023-01-30T18:40:22.567Z,7.00
2023-01-30T18:42:51.002Z,6.67
2023-01-30T18:45:19.249Z,6.47
2023-01-30T18:47:47.437Z,6.33
2023-01-30T18:50:18.089Z,6.30
2023-01-30T18:52:48.453Z,6.17
2023-01-30T18:55:18.660Z,7.40
2023-01-30T18:57:46.868Z,6.97
2023-01-30T19:00:17.553Z,6.67
2023-01-30T19:02:45.965Z,7.70
2023-01-30T19:05:14.185Z,6.87
2023-01-30T19:07:42.821Z,7.00
2023-01-30T19:10:17.335Z,6.53
2023-01-30T19:13:05.302Z,6.97
2023-01-30T19:15:36.958Z,6.03
2023-01-30T19:18:05.688Z,7.23
2023-01-30T19:20:34.489Z,7.10
2023-01-30T19:23:02.690Z,6.90
2023-01-30T19:25:30.931Z,8.10
2023-01-30T19:28:00.563Z,6.87
2023-01-30T19:30:29.410Z,7.33
2023-01-30T19:32:59.176Z,7.00
2023-01-30T19:35:27.505Z,10.87
2023-01-30T19:38:00.237Z,7.80
2023-01-30T19:40:28.849Z,10.40
2023-01-30T19:43:09.262Z,11.07
2023-01-30T19:45:40.645Z,13.07
2023-01-30T19:48:10.565Z,8.93
2023-01-30T19:50:39.183Z,15.00
2023-01-30T19:53:08.068Z,12.90
2023-01-30T19:55:36.707Z,13.03
2023-01-30T19:58:04.936Z,14.23
2023-01-30T20:00:33.270Z,9.90
2023-01-30T20:03:03.028Z,8.37
2023-01-30T20:05:31.283Z,11.47
2023-01-30T20:07:59.481Z,11.23
2023-01-30T20:10:27.822Z,9.57
2023-01-30T20:12:56.015Z,10.33
2023-01-30T20:15:24.228Z,8.13
2023-01-30T20:17:52.471Z,8.23
2023-01-30T20:20:22.485Z,6.87
2023-01-30T20:22:50.673Z,7.97
2023-01-30T20:25:18.881Z,6.97
2023-01-30T20:27:47.110Z,7.67
2023-01-30T20:30:16.316Z,8.43
2023-01-30T20:32:44.580Z,8.83
2023-01-30T20:35:13.567Z,8.00
2023-01-30T20:37:43.128Z,7.53
2023-01-30T20:40:14.237Z,8.03
2023-01-30T20:42:42.412Z,8.13
2023-01-30T20:45:11.882Z,8.33
2023-01-30T20:47:40.583Z,8.63
2023-01-30T20:50:13.755Z,7.77
2023-01-30T20:52:43.709Z,8.07
2023-01-30T20:55:11.976Z,6.80
2023-01-30T20:57:43.682Z,8.67
2023-01-30T21:00:14.788Z,7.63
2023-01-30T21:02:45.559Z,7.67
2023-01-30T21:05:38.684Z,7.43
2023-01-30T21:08:08.280Z,8.07
2023-01-30T21:10:37.117Z,8.07
2023-01-30T21:13:05.685Z,7.57
2023-01-30T21:15:34.306Z,7.77
2023-01-30T21:18:02.507Z,7.70
2023-01-30T21:20:30.842Z,8.27
2023-01-30T21:22:59.594Z,7.37
2023-01-30T21:25:29.412Z,7.23
2023-01-30T21:27:57.652Z,7.67
2023-01-30T21:30:26.309Z,7.33
2023-01-30T21:32:54.630Z,6.73
2023-01-30T21:35:22.871Z,7.07
2023-01-30T21:38:08.735Z,7.63
2023-01-30T21:40:55.967Z,7.80
2023-01-30T21:43:24.266Z,7.63
2023-01-30T21:45:59.330Z,8.67
2023-01-30T21:48:27.606Z,7.63
2023-01-30T21:50:56.289Z,7.70
2023-01-30T21:53:24.659Z,7.07
2023-01-30T21:55:54.723Z,7.57
2023-01-30T21:58:22.924Z,7.93
2023-01-30T22:00:51.130Z,7.03
2023-01-30T22:03:19.376Z,8.03
2023-01-30T22:05:47.650Z,7.63
2023-01-30T22:08:16.528Z,7.33
2023-01-30T22:10:44.740Z,7.27
2023-01-30T22:13:14.270Z,6.53
2023-01-30T22:15:43.360Z,5.70
2023-01-30T22:18:11.599Z,6.83
2023-01-30T22:20:39.823Z,6.87
2023-01-30T22:23:08.010Z,7.90
2023-01-30T22:25:36.592Z,6.60
2023-01-30T22:28:05.150Z,6.77
2023-01-30T22:30:34.733Z,7.03
2023-01-30T22:33:02.880Z,7.30
2023-01-30T22:35:31.123Z,6.63
2023-01-30T22:37:59.335Z,6.30
2023-01-30T22:40:27.553Z,5.97
2023-01-30T22:43:00.865Z,6.30
2023-01-30T22:45:29.078Z,6.53
2023-01-30T22:47:58.638Z,6.60
2023-01-30T22:50:27.128Z,6.03
2023-01-30T22:52:55.998Z,6.47
2023-01-30T22:55:24.327Z,6.33
2023-01-30T22:57:52.551Z,6.30
2023-01-30T23:00:21.171Z,6.20
2023-01-30T23:02:49.391Z,6.67
2023-01-30T23:05:31.944Z,6.20
2023-01-30T23:08:00.630Z,5.17
2023-01-30T23:10:28.863Z,6.67
2023-01-30T23:13:09.319Z,6.43
2023-01-30T23:15:42.721Z,6.27
2023-01-30T23:18:28.836Z,6.27
2023-01-30T23:20:58.471Z,6.90
2023-01-30T23:23:27.003Z,6.53
2023-01-30T23:25:55.196Z,6.77
2023-01-30T23:28:23.295Z,6.57
2023-01-30T23:30:51.515Z,6.87
2023-01-30T23:33:19.673Z,7.10
2023-01-30T23:35:47.883Z,7.43
2023-01-30T23:38:19.091Z,6.17
2023-01-30T23:40:48.847Z,6.50
2023-01-30T23:43:17.612Z,7.07
2023-01-30T23:45:45.929Z,6.83
2023-01-30T23:48:14.129Z,6.47
2023-01-30T23:50:42.755Z,6.43
2023-01-30T23:53:11.383Z,7.47
2023-01-30T23:55:41.271Z,6.87
2023-01-30T23:58:09.459Z,5.97
